sensor_id;sensor_type;location;lat;lon;timestamp;temperature;humidity
20045;DHT22;10183;47.808;9.476;2023-03-01T00:01:59;-0.40;99.90
20045;DHT22;10183;47.808;9.476;2023-03-01T00:04:25;-0.40;99.90
20045;DHT22;10183;47.808;9.476;2023-03-01T00:06:53;-0.40;99.90
20045;DHT22;10183;47.808;9.476;2023-03-01T00:09:19;-0.40;99.90
20045;DHT22;10183;47.808;9.476;2023-03-01T00:11:46;-0.30;99.90
20045;DHT22;10183;47.808;9.476;2023-03-01T00:14:12;-0.30;99.90
20045;DHT22;10183;47.808;9.476;2023-03-01T00:16:40;-0.30;99.90
20045;DHT22;10183;47.808;9.476;2023-03-01T00:19:09;-0.30;99.90
20045;DHT22;10183;47.808;9.476;2023-03-01T00:21:37;-0.30;99.90
20045;DHT22;10183;47.808;9.476;2023-03-01T00:24:03;-0.30;99.90
20045;DHT22;10183;47.808;9.476;2023-03-01T00:26:30;-0.30;99.90
20045;DHT22;10183;47.808;9.476;2023-03-01T00:28:57;-0.30;99.90
20045;DHT22;10183;47.808;9.476;2023-03-01T00:31:26;-0.30;99.90
20045;DHT22;10183;47.808;9.476;2023-03-01T00:33:58;-0.30;99.90
20045;DHT22;10183;47.808;9.476;2023-03-01T00:36:27;-0.30;99.90
20045;DHT22;10183;47.808;9.476;2023-03-01T00:38:53;-0.30;99.90
20045;DHT22;10183;47.808;9.476;2023-03-01T00:41:20;-0.30;99.90
20045;DHT22;10183;47.808;9.476;2023-03-01T00:43:49;-0.30;99.90
20045;DHT22;10183;47.808;9.476;2023-03-01T00:46:18;-0.30;99.90
20045;DHT22;10183;47.808;9.476;2023-03-01T00:48:45;-0.30;99.90
20045;DHT22;10183;47.808;9.476;2023-03-01T00:51:18;-0.30;99.90
20045;DHT22;10183;47.808;9.476;2023-03-01T00:53:46;-0.20;99.90
20045;DHT22;10183;47.808;9.476;2023-03-01T00:56:13;-0.30;99.90
20045;DHT22;10183;47.808;9.476;2023-03-01T00:58:40;-0.20;99.90
20045;DHT22;10183;47.808;9.476;2023-03-01T01:03:47;-0.30;99.90
20045;DHT22;10183;47.808;9.476;2023-03-01T01:06:19;-0.30;99.90
20045;DHT22;10183;47.808;9.476;2023-03-01T01:08:45;-0.30;99.90
20045;DHT22;10183;47.808;9.476;2023-03-01T01:11:12;-0.20;99.90
20045;DHT22;10183;47.808;9.476;2023-03-01T01:13:39;-0.20;99.90
20045;DHT22;10183;47.808;9.476;2023-03-01T01:16:06;-0.20;99.90
20045;DHT22;10183;47.808;9.476;2023-03-01T01:18:33;-0.20;99.90
20045;DHT22;10183;47.808;9.476;2023-03-01T01:21:10;-0.20;99.90
20045;DHT22;10183;47.808;9.476;2023-03-01T01:23:39;-0.20;99.90
20045;DHT22;10183;47.808;9.476;2023-03-01T01:26:10;-0.20;99.90
20045;DHT22;10183;47.808;9.476;2023-03-01T01:28:37;-0.10;99.90
20045;DHT22;10183;47.808;9.476;2023-03-01T01:31:04;-0.20;99.90
20045;DHT22;10183;47.808;9.476;2023-03-01T01:33:30;-0.20;99.90
20045;DHT22;10183;47.808;9.476;2023-03-01T01:35:57;-0.20;99.90
20045;DHT22;10183;47.808;9.476;2023-03-01T01:38:23;-0.10;99.90
20045;DHT22;10183;47.808;9.476;2023-03-01T01:40:50;-0.10;99.90
20045;DHT22;10183;47.808;9.476;2023-03-01T01:43:42;-0.20;99.90
20045;DHT22;10183;47.808;9.476;2023-03-01T01:48:53;-0.20;99.90
20045;DHT22;10183;47.808;9.476;2023-03-01T01:51:24;-0.20;99.90
20045;DHT22;10183;47.808;9.476;2023-03-01T01:53:54;-0.20;99.90
20045;DHT22;10183;47.808;9.476;2023-03-01T01:56:23;-0.20;99.90
20045;DHT22;10183;47.808;9.476;2023-03-01T01:58:50;-0.30;99.90
20045;DHT22;10183;47.808;9.476;2023-03-01T02:01:16;-0.30;99.90
20045;DHT22;10183;47.808;9.476;2023-03-01T02:03:44;-0.30;99.90
20045;DHT22;10183;47.808;9.476;2023-03-01T02:06:27;-0.30;99.90
20045;DHT22;10183;47.808;9.476;2023-03-01T02:08:59;-0.30;99.90
20045;DHT22;10183;47.808;9.476;2023-03-01T02:11:27;-0.30;99.90
20045;DHT22;10183;47.808;9.476;2023-03-01T02:13:54;-0.30;99.90
20045;DHT22;10183;47.808;9.476;2023-03-01T02:16:20;-0.30;99.90
20045;DHT22;10183;47.808;9.476;2023-03-01T02:18:47;-0.30;99.90
20045;DHT22;10183;47.808;9.476;2023-03-01T02:23:55;-0.30;99.90
20045;DHT22;10183;47.808;9.476;2023-03-01T02:26:42;-0.30;99.90
20045;DHT22;10183;47.808;9.476;2023-03-01T02:29:11;-0.30;99.90
20045;DHT22;10183;47.808;9.476;2023-03-01T02:31:37;-0.40;99.90
20045;DHT22;10183;47.808;9.476;2023-03-01T02:34:16;-0.40;99.90
20045;DHT22;10183;47.808;9.476;2023-03-01T02:36:48;-0.40;99.90
20045;DHT22;10183;47.808;9.476;2023-03-01T02:39:18;-0.40;99.90
20045;DHT22;10183;47.808;9.476;2023-03-01T02:41:49;-0.40;99.90
20045;DHT22;10183;47.808;9.476;2023-03-01T02:44:17;-0.50;99.90
20045;DHT22;10183;47.808;9.476;2023-03-01T02:46:47;-0.40;99.90
20045;DHT22;10183;47.808;9.476;2023-03-01T02:49:31;-0.50;99.90
20045;DHT22;10183;47.808;9.476;2023-03-01T02:52:11;-0.40;99.90
20045;DHT22;10183;47.808;9.476;2023-03-01T02:55:01;-0.50;99.90
20045;DHT22;10183;47.808;9.476;2023-03-01T02:57:29;-0.50;99.90
20045;DHT22;10183;47.808;9.476;2023-03-01T02:59:59;-0.50;99.90
20045;DHT22;10183;47.808;9.476;2023-03-01T03:02:29;-0.50;99.90
20045;DHT22;10183;47.808;9.476;2023-03-01T03:05:04;-0.50;99.90
20045;DHT22;10183;47.808;9.476;2023-03-01T03:07:33;-0.50;99.90
20045;DHT22;10183;47.808;9.476;2023-03-01T03:10:00;-0.50;99.90
20045;DHT22;10183;47.808;9.476;2023-03-01T03:12:27;-0.60;99.90
20045;DHT22;10183;47.808;9.476;2023-03-01T03:14:53;-0.60;99.90
20045;DHT22;10183;47.808;9.476;2023-03-01T03:17:19;-0.60;99.90
20045;DHT22;10183;47.808;9.476;2023-03-01T03:19:45;-0.60;99.90
20045;DHT22;10183;47.808;9.476;2023-03-01T03:22:12;-0.60;99.90
20045;DHT22;10183;47.808;9.476;2023-03-01T03:24:38;-0.60;99.90
20045;DHT22;10183;47.808;9.476;2023-03-01T03:27:05;-0.60;99.90
20045;DHT22;10183;47.808;9.476;2023-03-01T03:29:32;-0.60;99.90
20045;DHT22;10183;47.808;9.476;2023-03-01T03:31:58;-0.60;99.90
20045;DHT22;10183;47.808;9.476;2023-03-01T03:34:25;-0.60;99.90
20045;DHT22;10183;47.808;9.476;2023-03-01T03:36:54;-0.60;99.90
20045;DHT22;10183;47.808;9.476;2023-03-01T03:39:28;-0.60;99.90
20045;DHT22;10183;47.808;9.476;2023-03-01T03:41:54;-0.60;99.90
20045;DHT22;10183;47.808;9.476;2023-03-01T03:44:21;-0.60;99.90
20045;DHT22;10183;47.808;9.476;2023-03-01T03:46:47;-0.60;99.90
20045;DHT22;10183;47.808;9.476;2023-03-01T03:49:13;-0.60;99.90
20045;DHT22;10183;47.808;9.476;2023-03-01T03:51:39;-0.60;99.90
20045;DHT22;10183;47.808;9.476;2023-03-01T03:54:05;-0.60;99.90
20045;DHT22;10183;47.808;9.476;2023-03-01T03:56:31;-0.60;99.90
20045;DHT22;10183;47.808;9.476;2023-03-01T03:58:57;-0.60;99.90
20045;DHT22;10183;47.808;9.476;2023-03-01T04:01:24;-0.60;99.90
20045;DHT22;10183;47.808;9.476;2023-03-01T04:03:50;-0.60;99.90
20045;DHT22;10183;47.808;9.476;2023-03-01T04:06:20;-0.60;99.90
20045;DHT22;10183;47.808;9.476;2023-03-01T04:08:46;-0.60;99.90
20045;DHT22;10183;47.808;9.476;2023-03-01T04:11:12;-0.60;99.90
20045;DHT22;10183;47.808;9.476;2023-03-01T04:13:57;-0.60;99.90
20045;DHT22;10183;47.808;9.476;2023-03-01T04:16:23;-0.60;99.90
20045;DHT22;10183;47.808;9.476;2023-03-01T04:18:49;-0.60;99.90
20045;DHT22;10183;47.808;9.476;2023-03-01T04:21:16;-0.60;99.90
20045;DHT22;10183;47.808;9.476;2023-03-01T04:23:42;-0.60;99.90
20045;DHT22;10183;47.808;9.476;2023-03-01T04:26:08;-0.70;99.90
20045;DHT22;10183;47.808;9.476;2023-03-01T04:28:37;-0.60;99.90
20045;DHT22;10183;47.808;9.476;2023-03-01T04:31:06;-0.60;99.90
20045;DHT22;10183;47.808;9.476;2023-03-01T04:33:40;-0.60;99.90
20045;DHT22;10183;47.808;9.476;2023-03-01T04:36:08;-0.60;99.90
20045;DHT22;10183;47.808;9.476;2023-03-01T04:38:36;-0.60;99.90
20045;DHT22;10183;47.808;9.476;2023-03-01T04:41:05;-0.60;99.90
20045;DHT22;10183;47.808;9.476;2023-03-01T04:43:31;-0.60;99.90
20045;DHT22;10183;47.808;9.476;2023-03-01T04:46:04;-0.60;99.90
20045;DHT22;10183;47.808;9.476;2023-03-01T04:48:32;-0.60;99.90
20045;DHT22;10183;47.808;9.476;2023-03-01T04:50:59;-0.60;99.90
20045;DHT22;10183;47.808;9.476;2023-03-01T04:53:26;-0.60;99.90
20045;DHT22;10183;47.808;9.476;2023-03-01T04:55:54;-0.60;99.90
20045;DHT22;10183;47.808;9.476;2023-03-01T04:58:23;-0.50;99.90
20045;DHT22;10183;47.808;9.476;2023-03-01T05:00:49;-0.50;99.90
20045;DHT22;10183;47.808;9.476;2023-03-01T05:03:16;-0.50;99.90
20045;DHT22;10183;47.808;9.476;2023-03-01T05:05:45;-0.50;99.90
20045;DHT22;10183;47.808;9.476;2023-03-01T05:08:12;-0.50;99.90
20045;DHT22;10183;47.808;9.476;2023-03-01T05:10:51;-0.50;99.90
20045;DHT22;10183;47.808;9.476;2023-03-01T05:13:19;-0.50;99.90
20045;DHT22;10183;47.808;9.476;2023-03-01T05:15:57;-0.50;99.90
20045;DHT22;10183;47.808;9.476;2023-03-01T05:18:25;-0.50;99.90
20045;DHT22;10183;47.808;9.476;2023-03-01T05:21:02;-0.50;99.90
20045;DHT22;10183;47.808;9.476;2023-03-01T05:23:31;-0.50;99.90
20045;DHT22;10183;47.808;9.476;2023-03-01T05:26:00;-0.50;99.90
20045;DHT22;10183;47.808;9.476;2023-03-01T05:28:27;-0.50;99.90
20045;DHT22;10183;47.808;9.476;2023-03-01T05:30:55;-0.60;99.90
20045;DHT22;10183;47.808;9.476;2023-03-01T05:33:21;-0.50;99.90
20045;DHT22;10183;47.808;9.476;2023-03-01T05:35:49;-0.50;99.90
20045;DHT22;10183;47.808;9.476;2023-03-01T05:38:16;-0.50;99.90
20045;DHT22;10183;47.808;9.476;2023-03-01T05:40:43;-0.50;99.90
20045;DHT22;10183;47.808;9.476;2023-03-01T05:43:10;-0.50;99.90
20045;DHT22;10183;47.808;9.476;2023-03-01T05:45:38;-0.50;99.90
20045;DHT22;10183;47.808;9.476;2023-03-01T05:48:05;-0.50;99.90
20045;DHT22;10183;47.808;9.476;2023-03-01T05:50:34;-0.40;99.90
20045;DHT22;10183;47.808;9.476;2023-03-01T05:53:03;-0.50;99.90
20045;DHT22;10183;47.808;9.476;2023-03-01T05:55:32;-0.50;99.90
20045;DHT22;10183;47.808;9.476;2023-03-01T05:58:04;-0.50;99.90
20045;DHT22;10183;47.808;9.476;2023-03-01T06:00:30;-0.50;99.90
20045;DHT22;10183;47.808;9.476;2023-03-01T06:02:58;-0.40;99.90
20045;DHT22;10183;47.808;9.476;2023-03-01T06:05:25;-0.40;99.90
20045;DHT22;10183;47.808;9.476;2023-03-01T06:07:52;-0.50;99.90
20045;DHT22;10183;47.808;9.476;2023-03-01T06:10:20;-0.40;99.90
20045;DHT22;10183;47.808;9.476;2023-03-01T06:12:47;-0.50;99.90
20045;DHT22;10183;47.808;9.476;2023-03-01T06:15:15;-0.40;99.90
20045;DHT22;10183;47.808;9.476;2023-03-01T06:17:43;-0.40;99.90
20045;DHT22;10183;47.808;9.476;2023-03-01T06:20:21;-0.40;99.90
20045;DHT22;10183;47.808;9.476;2023-03-01T06:22:48;-0.40;99.90
20045;DHT22;10183;47.808;9.476;2023-03-01T06:25:20;-0.40;99.90
20045;DHT22;10183;47.808;9.476;2023-03-01T06:27:47;-0.40;99.90
20045;DHT22;10183;47.808;9.476;2023-03-01T06:30:16;-0.40;99.90
20045;DHT22;10183;47.808;9.476;2023-03-01T06:32:43;-0.40;99.90
20045;DHT22;10183;47.808;9.476;2023-03-01T06:35:11;-0.30;99.90
20045;DHT22;10183;47.808;9.476;2023-03-01T06:37:37;-0.30;99.90
20045;DHT22;10183;47.808;9.476;2023-03-01T06:40:05;-0.30;99.90
20045;DHT22;10183;47.808;9.476;2023-03-01T06:42:35;-0.30;99.90
20045;DHT22;10183;47.808;9.476;2023-03-01T06:45:02;-0.40;99.90
20045;DHT22;10183;47.808;9.476;2023-03-01T06:47:28;-0.30;99.90
20045;DHT22;10183;47.808;9.476;2023-03-01T06:49:54;-0.30;99.90
20045;DHT22;10183;47.808;9.476;2023-03-01T06:52:20;-0.30;99.90
20045;DHT22;10183;47.808;9.476;2023-03-01T06:54:46;-0.30;99.90
20045;DHT22;10183;47.808;9.476;2023-03-01T06:57:12;-0.30;99.90
20045;DHT22;10183;47.808;9.476;2023-03-01T06:59:38;-0.30;99.90
20045;DHT22;10183;47.808;9.476;2023-03-01T07:02:05;-0.30;99.90
20045;DHT22;10183;47.808;9.476;2023-03-01T07:04:31;-0.30;99.90
20045;DHT22;10183;47.808;9.476;2023-03-01T07:06:57;-0.20;99.90
20045;DHT22;10183;47.808;9.476;2023-03-01T07:09:23;-0.20;99.90
20045;DHT22;10183;47.808;9.476;2023-03-01T07:11:50;-0.30;99.90
20045;DHT22;10183;47.808;9.476;2023-03-01T07:14:16;-0.30;99.90
20045;DHT22;10183;47.808;9.476;2023-03-01T07:16:42;-0.20;99.90
20045;DHT22;10183;47.808;9.476;2023-03-01T07:19:08;-0.20;99.90
20045;DHT22;10183;47.808;9.476;2023-03-01T07:21:34;-0.20;99.90
20045;DHT22;10183;47.808;9.476;2023-03-01T07:24:00;-0.20;99.90
20045;DHT22;10183;47.808;9.476;2023-03-01T07:26:27;-0.20;99.90
20045;DHT22;10183;47.808;9.476;2023-03-01T07:28:53;-0.10;99.90
20045;DHT22;10183;47.808;9.476;2023-03-01T07:31:19;-0.20;99.90
20045;DHT22;10183;47.808;9.476;2023-03-01T07:33:45;-0.10;99.90
20045;DHT22;10183;47.808;9.476;2023-03-01T07:36:11;-0.10;99.90
20045;DHT22;10183;47.808;9.476;2023-03-01T07:38:37;-0.20;99.90
20045;DHT22;10183;47.808;9.476;2023-03-01T07:41:04;-0.10;99.90
20045;DHT22;10183;47.808;9.476;2023-03-01T07:43:31;-0.10;99.90
20045;DHT22;10183;47.808;9.476;2023-03-01T07:46:02;-0.10;99.90
20045;DHT22;10183;47.808;9.476;2023-03-01T07:48:29;-0.10;99.90
20045;DHT22;10183;47.808;9.476;2023-03-01T07:51:04;0.00;99.90
20045;DHT22;10183;47.808;9.476;2023-03-01T07:53:31;0.00;99.90
20045;DHT22;10183;47.808;9.476;2023-03-01T07:58:34;0.10;99.90
20045;DHT22;10183;47.808;9.476;2023-03-01T08:01:08;0.10;99.90
20045;DHT22;10183;47.808;9.476;2023-03-01T08:03:35;0.10;99.90
20045;DHT22;10183;47.808;9.476;2023-03-01T08:06:16;0.10;99.90
20045;DHT22;10183;47.808;9.476;2023-03-01T08:08:42;0.10;99.90
20045;DHT22;10183;47.808;9.476;2023-03-01T08:11:11;0.10;99.90
20045;DHT22;10183;47.808;9.476;2023-03-01T08:13:37;0.20;99.90
20045;DHT22;10183;47.808;9.476;2023-03-01T08:16:07;0.10;99.90
20045;DHT22;10183;47.808;9.476;2023-03-01T08:18:34;0.20;99.90
20045;DHT22;10183;47.808;9.476;2023-03-01T08:21:08;0.20;99.90
20045;DHT22;10183;47.808;9.476;2023-03-01T08:23:35;0.20;99.90
20045;DHT22;10183;47.808;9.476;2023-03-01T08:26:12;0.20;99.90
20045;DHT22;10183;47.808;9.476;2023-03-01T08:28:39;0.10;99.90
20045;DHT22;10183;47.808;9.476;2023-03-01T08:31:23;0.10;99.90
20045;DHT22;10183;47.808;9.476;2023-03-01T08:33:52;0.10;99.90
20045;DHT22;10183;47.808;9.476;2023-03-01T08:36:23;0.10;99.90
20045;DHT22;10183;47.808;9.476;2023-03-01T08:38:50;0.10;99.90
20045;DHT22;10183;47.808;9.476;2023-03-01T08:41:16;0.20;99.90
20045;DHT22;10183;47.808;9.476;2023-03-01T08:43:43;0.10;99.90
20045;DHT22;10183;47.808;9.476;2023-03-01T08:46:10;0.20;99.90
20045;DHT22;10183;47.808;9.476;2023-03-01T08:48:36;0.00;99.90
20045;DHT22;10183;47.808;9.476;2023-03-01T08:51:14;0.10;99.90
20045;DHT22;10183;47.808;9.476;2023-03-01T08:53:41;0.10;99.90
20045;DHT22;10183;47.808;9.476;2023-03-01T08:56:08;0.20;99.90
20045;DHT22;10183;47.808;9.476;2023-03-01T08:58:35;0.30;99.90
20045;DHT22;10183;47.808;9.476;2023-03-01T09:01:06;0.30;99.90
20045;DHT22;10183;47.808;9.476;2023-03-01T09:03:32;0.40;99.90
20045;DHT22;10183;47.808;9.476;2023-03-01T09:06:02;0.50;99.90
20045;DHT22;10183;47.808;9.476;2023-03-01T09:08:28;0.60;99.90
20045;DHT22;10183;47.808;9.476;2023-03-01T09:10:55;0.60;99.90
20045;DHT22;10183;47.808;9.476;2023-03-01T09:13:22;0.60;99.90
20045;DHT22;10183;47.808;9.476;2023-03-01T09:15:51;0.50;99.90
20045;DHT22;10183;47.808;9.476;2023-03-01T09:18:18;0.50;99.90
20045;DHT22;10183;47.808;9.476;2023-03-01T09:20:44;0.60;99.90
20045;DHT22;10183;47.808;9.476;2023-03-01T09:23:10;0.60;99.90
20045;DHT22;10183;47.808;9.476;2023-03-01T09:25:36;0.60;99.90
20045;DHT22;10183;47.808;9.476;2023-03-01T09:28:02;0.60;99.90
20045;DHT22;10183;47.808;9.476;2023-03-01T09:30:29;0.60;99.90
20045;DHT22;10183;47.808;9.476;2023-03-01T09:32:58;0.60;99.90
20045;DHT22;10183;47.808;9.476;2023-03-01T09:35:24;0.60;99.90
20045;DHT22;10183;47.808;9.476;2023-03-01T09:37:51;0.70;99.90
20045;DHT22;10183;47.808;9.476;2023-03-01T09:40:20;0.50;99.90
20045;DHT22;10183;47.808;9.476;2023-03-01T09:43:13;0.50;99.90
20045;DHT22;10183;47.808;9.476;2023-03-01T09:45:41;0.50;99.90
20045;DHT22;10183;47.808;9.476;2023-03-01T09:48:15;0.40;99.90
20045;DHT22;10183;47.808;9.476;2023-03-01T09:50:43;0.50;99.90
20045;DHT22;10183;47.808;9.476;2023-03-01T09:53:14;0.40;99.90
20045;DHT22;10183;47.808;9.476;2023-03-01T09:55:43;0.50;99.90
20045;DHT22;10183;47.808;9.476;2023-03-01T10:01:34;0.70;99.90
20045;DHT22;10183;47.808;9.476;2023-03-01T10:09:42;0.90;99.90
20045;DHT22;10183;47.808;9.476;2023-03-01T10:12:18;0.90;99.90
20045;DHT22;10183;47.808;9.476;2023-03-01T10:17:55;1.00;99.90
20045;DHT22;10183;47.808;9.476;2023-03-01T10:20:28;0.90;99.90
20045;DHT22;10183;47.808;9.476;2023-03-01T10:22:55;1.00;99.90
20045;DHT22;10183;47.808;9.476;2023-03-01T10:28:05;1.30;99.90
20045;DHT22;10183;47.808;9.476;2023-03-01T10:30:39;1.20;99.90
20045;DHT22;10183;47.808;9.476;2023-03-01T10:33:16;1.30;99.90
20045;DHT22;10183;47.808;9.476;2023-03-01T10:35:43;1.20;99.90
20045;DHT22;10183;47.808;9.476;2023-03-01T10:38:12;1.30;99.90
20045;DHT22;10183;47.808;9.476;2023-03-01T10:40:54;1.30;99.90
20045;DHT22;10183;47.808;9.476;2023-03-01T10:43:21;1.30;99.90
20045;DHT22;10183;47.808;9.476;2023-03-01T10:45:47;1.30;99.90
20045;DHT22;10183;47.808;9.476;2023-03-01T10:48:23;1.20;99.90
20045;DHT22;10183;47.808;9.476;2023-03-01T10:58:28;1.20;99.90
20045;DHT22;10183;47.808;9.476;2023-03-01T11:01:00;1.10;99.90
20045;DHT22;10183;47.808;9.476;2023-03-01T11:03:38;1.20;99.90
20045;DHT22;10183;47.808;9.476;2023-03-01T11:06:20;1.10;99.90
20045;DHT22;10183;47.808;9.476;2023-03-01T11:08:50;1.10;99.90
20045;DHT22;10183;47.808;9.476;2023-03-01T11:11:22;1.20;99.90
20045;DHT22;10183;47.808;9.476;2023-03-01T11:16:34;1.20;99.90
20045;DHT22;10183;47.808;9.476;2023-03-01T11:22:03;1.20;99.90
20045;DHT22;10183;47.808;9.476;2023-03-01T11:24:51;1.20;99.90
20045;DHT22;10183;47.808;9.476;2023-03-01T11:27:35;1.00;99.90
20045;DHT22;10183;47.808;9.476;2023-03-01T11:30:24;1.00;99.90
20045;DHT22;10183;47.808;9.476;2023-03-01T11:35:29;1.10;99.90
20045;DHT22;10183;47.808;9.476;2023-03-01T11:38:23;1.10;99.90
20045;DHT22;10183;47.808;9.476;2023-03-01T11:41:14;1.00;99.90
20045;DHT22;10183;47.808;9.476;2023-03-01T11:44:01;0.90;99.90
20045;DHT22;10183;47.808;9.476;2023-03-01T11:46:41;1.10;99.90
20045;DHT22;10183;47.808;9.476;2023-03-01T11:49:28;1.30;99.90
20045;DHT22;10183;47.808;9.476;2023-03-01T11:52:12;1.40;99.90
20045;DHT22;10183;47.808;9.476;2023-03-01T12:06:02;1.70;99.90
20045;DHT22;10183;47.808;9.476;2023-03-01T12:08:37;1.80;99.90
20045;DHT22;10183;47.808;9.476;2023-03-01T12:20:17;1.50;99.90
20045;DHT22;10183;47.808;9.476;2023-03-01T12:23:04;1.50;99.90
20045;DHT22;10183;47.808;9.476;2023-03-01T12:26:23;1.50;99.90
20045;DHT22;10183;47.808;9.476;2023-03-01T12:42:28;1.70;99.90
20045;DHT22;10183;47.808;9.476;2023-03-01T12:50:21;1.80;99.90
20045;DHT22;10183;47.808;9.476;2023-03-01T12:52:56;1.90;99.90
20045;DHT22;10183;47.808;9.476;2023-03-01T13:12:00;1.90;99.90
20045;DHT22;10183;47.808;9.476;2023-03-01T13:14:35;1.90;99.90
20045;DHT22;10183;47.808;9.476;2023-03-01T13:17:02;1.90;99.90
20045;DHT22;10183;47.808;9.476;2023-03-01T13:19:29;2.00;99.90
20045;DHT22;10183;47.808;9.476;2023-03-01T13:21:55;2.00;99.90
20045;DHT22;10183;47.808;9.476;2023-03-01T13:29:47;2.10;99.90
20045;DHT22;10183;47.808;9.476;2023-03-01T13:32:25;2.10;99.90
20045;DHT22;10183;47.808;9.476;2023-03-01T13:37:39;2.30;99.90
20045;DHT22;10183;47.808;9.476;2023-03-01T13:42:53;2.20;99.90
20045;DHT22;10183;47.808;9.476;2023-03-01T13:45:21;2.30;99.90
20045;DHT22;10183;47.808;9.476;2023-03-01T13:47:53;2.10;99.90
20045;DHT22;10183;47.808;9.476;2023-03-01T13:50:23;2.00;99.90
20045;DHT22;10183;47.808;9.476;2023-03-01T13:52:53;1.70;99.90
20045;DHT22;10183;47.808;9.476;2023-03-01T13:55:25;1.70;99.90
20045;DHT22;10183;47.808;9.476;2023-03-01T13:57:57;1.80;99.90
20045;DHT22;10183;47.808;9.476;2023-03-01T14:05:35;1.90;99.90
20045;DHT22;10183;47.808;9.476;2023-03-01T14:08:13;1.80;99.90
20045;DHT22;10183;47.808;9.476;2023-03-01T14:16:22;1.80;99.90
20045;DHT22;10183;47.808;9.476;2023-03-01T14:19:17;1.90;99.90
20045;DHT22;10183;47.808;9.476;2023-03-01T14:21:46;1.80;99.90
20045;DHT22;10183;47.808;9.476;2023-03-01T14:24:21;1.70;99.90
20045;DHT22;10183;47.808;9.476;2023-03-01T14:26:49;1.80;99.90
20045;DHT22;10183;47.808;9.476;2023-03-01T14:29:34;1.70;99.90
20045;DHT22;10183;47.808;9.476;2023-03-01T14:32:21;1.80;99.90
20045;DHT22;10183;47.808;9.476;2023-03-01T14:34:49;1.80;99.90
20045;DHT22;10183;47.808;9.476;2023-03-01T14:37:24;1.90;99.90
20045;DHT22;10183;47.808;9.476;2023-03-01T14:39:51;2.00;99.90
20045;DHT22;10183;47.808;9.476;2023-03-01T14:42:20;2.00;99.90
20045;DHT22;10183;47.808;9.476;2023-03-01T14:44:48;2.00;99.90
20045;DHT22;10183;47.808;9.476;2023-03-01T14:47:23;1.90;99.90
20045;DHT22;10183;47.808;9.476;2023-03-01T14:49:56;3.60;99.90
20045;DHT22;10183;47.808;9.476;2023-03-01T14:52:28;5.60;99.90
20045;DHT22;10183;47.808;9.476;2023-03-01T14:54:57;7.20;99.90
20045;DHT22;10183;47.808;9.476;2023-03-01T14:57:25;8.90;99.90
20045;DHT22;10183;47.808;9.476;2023-03-01T14:59:58;11.10;99.90
20045;DHT22;10183;47.808;9.476;2023-03-01T15:02:27;11.30;93.00
20045;DHT22;10183;47.808;9.476;2023-03-01T15:04:56;8.80;97.30
20045;DHT22;10183;47.808;9.476;2023-03-01T15:07:27;7.10;99.90
20045;DHT22;10183;47.808;9.476;2023-03-01T15:09:55;6.00;99.90
20045;DHT22;10183;47.808;9.476;2023-03-01T15:12:41;4.80;99.90
20045;DHT22;10183;47.808;9.476;2023-03-01T15:18:02;3.10;99.90
20045;DHT22;10183;47.808;9.476;2023-03-01T15:20:30;2.70;99.90
20045;DHT22;10183;47.808;9.476;2023-03-01T15:23:01;2.40;99.90
20045;DHT22;10183;47.808;9.476;2023-03-01T15:25:29;2.70;99.90
20045;DHT22;10183;47.808;9.476;2023-03-01T15:27:58;3.30;99.90
20045;DHT22;10183;47.808;9.476;2023-03-01T15:30:32;4.30;99.90
20045;DHT22;10183;47.808;9.476;2023-03-01T15:35:51;5.00;99.90
20045;DHT22;10183;47.808;9.476;2023-03-01T15:38:28;4.70;99.90
20045;DHT22;10183;47.808;9.476;2023-03-01T15:40:56;5.50;99.90
20045;DHT22;10183;47.808;9.476;2023-03-01T15:43:40;5.60;99.90
20045;DHT22;10183;47.808;9.476;2023-03-01T15:48:45;6.50;99.90
20045;DHT22;10183;47.808;9.476;2023-03-01T15:51:12;6.50;99.90
20045;DHT22;10183;47.808;9.476;2023-03-01T15:53:39;6.10;99.90
20045;DHT22;10183;47.808;9.476;2023-03-01T15:56:06;6.70;99.90
20045;DHT22;10183;47.808;9.476;2023-03-01T15:58:33;6.80;99.90
20045;DHT22;10183;47.808;9.476;2023-03-01T16:00:59;6.20;99.90
20045;DHT22;10183;47.808;9.476;2023-03-01T16:03:26;6.20;99.90
20045;DHT22;10183;47.808;9.476;2023-03-01T16:05:52;5.40;99.90
20045;DHT22;10183;47.808;9.476;2023-03-01T16:08:19;4.70;99.90
20045;DHT22;10183;47.808;9.476;2023-03-01T16:10:45;5.10;99.90
20045;DHT22;10183;47.808;9.476;2023-03-01T16:13:12;4.40;99.90
20045;DHT22;10183;47.808;9.476;2023-03-01T16:15:39;4.70;99.90
20045;DHT22;10183;47.808;9.476;2023-03-01T16:18:06;4.30;99.90
20045;DHT22;10183;47.808;9.476;2023-03-01T16:20:34;4.70;99.90
20045;DHT22;10183;47.808;9.476;2023-03-01T16:23:02;4.80;99.90
20045;DHT22;10183;47.808;9.476;2023-03-01T16:25:30;5.00;99.90
20045;DHT22;10183;47.808;9.476;2023-03-01T16:27:57;5.00;99.90
20045;DHT22;10183;47.808;9.476;2023-03-01T16:30:26;4.60;99.90
20045;DHT22;10183;47.808;9.476;2023-03-01T16:32:53;3.60;99.90
20045;DHT22;10183;47.808;9.476;2023-03-01T16:35:21;3.30;99.90
20045;DHT22;10183;47.808;9.476;2023-03-01T16:37:47;3.10;99.90
20045;DHT22;10183;47.808;9.476;2023-03-01T16:40:22;2.80;99.90
20045;DHT22;10183;47.808;9.476;2023-03-01T16:42:49;2.50;99.90
20045;DHT22;10183;47.808;9.476;2023-03-01T16:45:16;2.40;99.90
20045;DHT22;10183;47.808;9.476;2023-03-01T16:47:43;2.20;99.90
20045;DHT22;10183;47.808;9.476;2023-03-01T16:50:10;2.00;99.90
20045;DHT22;10183;47.808;9.476;2023-03-01T16:52:37;1.90;99.90
20045;DHT22;10183;47.808;9.476;2023-03-01T16:55:05;1.80;99.90
20045;DHT22;10183;47.808;9.476;2023-03-01T16:57:34;1.60;99.90
20045;DHT22;10183;47.808;9.476;2023-03-01T17:00:00;1.50;99.90
20045;DHT22;10183;47.808;9.476;2023-03-01T17:02:34;1.40;99.90
20045;DHT22;10183;47.808;9.476;2023-03-01T17:05:01;1.30;99.90
20045;DHT22;10183;47.808;9.476;2023-03-01T17:07:29;1.30;99.90
20045;DHT22;10183;47.808;9.476;2023-03-01T17:10:03;1.30;99.90
20045;DHT22;10183;47.808;9.476;2023-03-01T17:12:29;1.40;99.90
20045;DHT22;10183;47.808;9.476;2023-03-01T17:14:56;1.40;99.90
20045;DHT22;10183;47.808;9.476;2023-03-01T17:17:22;1.40;99.90
20045;DHT22;10183;47.808;9.476;2023-03-01T17:19:48;1.30;99.90
20045;DHT22;10183;47.808;9.476;2023-03-01T17:22:15;1.30;99.90
20045;DHT22;10183;47.808;9.476;2023-03-01T17:24:43;1.20;99.90
20045;DHT22;10183;47.808;9.476;2023-03-01T17:27:11;1.20;99.90
20045;DHT22;10183;47.808;9.476;2023-03-01T17:29:39;1.30;99.90
20045;DHT22;10183;47.808;9.476;2023-03-01T17:32:06;1.30;99.90
20045;DHT22;10183;47.808;9.476;2023-03-01T17:34:32;1.30;99.90
20045;DHT22;10183;47.808;9.476;2023-03-01T17:36:59;1.40;99.90
20045;DHT22;10183;47.808;9.476;2023-03-01T17:39:26;1.40;99.90
20045;DHT22;10183;47.808;9.476;2023-03-01T17:41:56;1.40;99.90
20045;DHT22;10183;47.808;9.476;2023-03-01T17:44:24;1.30;99.90
20045;DHT22;10183;47.808;9.476;2023-03-01T17:46:50;1.20;99.90
20045;DHT22;10183;47.808;9.476;2023-03-01T17:49:16;1.20;99.90
20045;DHT22;10183;47.808;9.476;2023-03-01T17:51:43;1.10;99.90
20045;DHT22;10183;47.808;9.476;2023-03-01T17:54:10;1.10;99.90
20045;DHT22;10183;47.808;9.476;2023-03-01T17:56:36;1.20;99.90
20045;DHT22;10183;47.808;9.476;2023-03-01T17:59:04;1.20;99.90
20045;DHT22;10183;47.808;9.476;2023-03-01T18:01:31;1.20;99.90